Time;durP1;ratioP1;P1;durP2;ratioP2;P2;SDS_P1;SDS_P2;PMS_P1;PMS_P2;Temp;Humidity;BMP_temperature;BMP_pressure;BME280_temperature;BME280_humidity;BME280_pressure;Samples;Min_cycle;Max_cycle;Signal;HPM_P1;HPM_P2
2021/07/10 00:01:10;;;;;;;;;;;22.70;55.80;;;;;;500639;237;1176;-71
2021/07/10 00:03:11;;;;;;;;;;;22.80;55.80;;;;;;500501;237;1142;-71
2021/07/10 00:05:14;;;;;;;;;;;22.80;55.70;;;;;;500546;237;2191;-71
2021/07/10 00:07:15;;;;;;;;;;;22.80;55.70;;;;;;500414;238;1502;-71
2021/07/10 00:09:16;;;;;;;;;;;22.80;55.40;;;;;;500386;237;1178;-71
2021/07/10 00:11:17;;;;;;;;;;;22.90;55.40;;;;;;500538;237;1110;-71
2021/07/10 00:13:19;;;;;;;;;;;22.90;55.30;;;;;;500441;237;1139;-71
2021/07/10 00:15:20;;;;;;;;;;;22.80;55.30;;;;;;500581;237;998;-71
2021/07/10 00:17:21;;;;;;;;;;;22.90;55.40;;;;;;500447;237;1108;-71
2021/07/10 00:19:23;;;;;;;;;;;22.90;55.30;;;;;;500983;237;1146;-71
2021/07/10 00:21:24;;;;;;;;;;;22.90;55.30;;;;;;500391;237;1267;-70
2021/07/10 00:23:25;;;;;;;;;;;22.90;55.30;;;;;;500705;237;986;-70
2021/07/10 00:25:27;;;;;;;;;;;22.90;55.30;;;;;;500595;237;2191;-71
2021/07/10 00:27:28;;;;;;;;;;;22.90;55.30;;;;;;500357;237;1073;-71
2021/07/10 00:29:29;;;;;;;;;;;22.80;55.20;;;;;;500443;237;1158;-71
2021/07/10 00:31:30;;;;;;;;;;;22.90;55.20;;;;;;500518;237;1194;-71
2021/07/10 00:33:32;;;;;;;;;;;22.80;55.20;;;;;;500438;237;1265;-71
2021/07/10 00:35:33;;;;;;;;;;;22.80;55.20;;;;;;500547;237;1230;-71
2021/07/10 00:37:34;;;;;;;;;;;22.80;55.20;;;;;;500375;237;1087;-71
2021/07/10 00:39:36;;;;;;;;;;;23.00;54.70;;;;;;500428;237;1103;-71
2021/07/10 00:41:37;;;;;;;;;;;22.90;54.80;;;;;;500431;236;1172;-71
2021/07/10 00:43:38;;;;;;;;;;;22.90;55.00;;;;;;500480;237;1092;-71
2021/07/10 00:45:40;;;;;;;;;;;22.90;55.00;;;;;;500517;237;2192;-71
2021/07/10 00:47:41;;;;;;;;;;;22.80;55.20;;;;;;500525;237;1047;-71
2021/07/10 00:49:42;;;;;;;;;;;22.90;55.00;;;;;;500696;237;1074;-70
2021/07/10 00:51:44;;;;;;;;;;;22.80;55.10;;;;;;500409;237;1181;-70
2021/07/10 00:53:45;;;;;;;;;;;22.80;55.00;;;;;;500482;237;960;-70
2021/07/10 00:55:46;;;;;;;;;;;22.80;55.00;;;;;;500472;237;1069;-71
2021/07/10 00:57:48;;;;;;;;;;;22.80;55.00;;;;;;500462;237;1057;-71
2021/07/10 00:59:49;;;;;;;;;;;22.80;55.00;;;;;;500719;237;1024;-71
2021/07/10 01:01:50;;;;;;;;;;;22.90;54.90;;;;;;500478;237;1163;-71
2021/07/10 01:03:52;;;;;;;;;;;22.90;54.80;;;;;;500621;237;1104;-71
2021/07/10 01:05:53;;;;;;;;;;;22.80;54.70;;;;;;500603;237;2125;-71
2021/07/10 01:07:55;;;;;;;;;;;22.90;54.80;;;;;;500401;237;1168;-71
2021/07/10 01:09:56;;;;;;;;;;;22.90;54.80;;;;;;500398;237;1057;-70
2021/07/10 01:11:57;;;;;;;;;;;22.80;54.90;;;;;;500473;237;1192;-70
2021/07/10 01:13:58;;;;;;;;;;;22.80;54.90;;;;;;500477;237;1085;-70
2021/07/10 01:16:00;;;;;;;;;;;22.80;54.90;;;;;;500602;237;1191;-70
2021/07/10 01:18:01;;;;;;;;;;;22.80;54.90;;;;;;500938;237;1008;-70
2021/07/10 01:20:02;;;;;;;;;;;22.80;54.80;;;;;;500469;237;1021;-70
2021/07/10 01:22:04;;;;;;;;;;;22.80;54.80;;;;;;500354;237;1238;-70
2021/07/10 01:24:05;;;;;;;;;;;22.90;54.80;;;;;;500420;237;1207;-72
2021/07/10 01:26:06;;;;;;;;;;;22.80;54.70;;;;;;500429;237;2144;-70
2021/07/10 01:28:08;;;;;;;;;;;22.90;54.60;;;;;;500326;237;1113;-70
2021/07/10 01:30:10;;;;;;;;;;;22.90;54.60;;;;;;500290;237;972;-71
2021/07/10 01:32:14;;;;;;;;;;;22.90;54.60;;;;;;500507;237;1133;-71
2021/07/10 01:34:12;;;;;;;;;;;22.80;54.60;;;;;;500276;238;1441;-71
2021/07/10 01:36:14;;;;;;;;;;;22.90;54.70;;;;;;500337;237;1230;-71
2021/07/10 01:38:15;;;;;;;;;;;22.90;54.50;;;;;;500393;237;1182;-71
2021/07/10 01:40:16;;;;;;;;;;;22.90;54.40;;;;;;500469;237;1018;-71
2021/07/10 01:42:19;;;;;;;;;;;22.90;54.50;;;;;;500385;237;1178;-71
2021/07/10 01:44:19;;;;;;;;;;;22.80;54.60;;;;;;500411;237;1049;-71
2021/07/10 01:46:21;;;;;;;;;;;22.80;54.60;;;;;;500321;237;2140;-71
2021/07/10 01:48:22;;;;;;;;;;;22.80;54.70;;;;;;500608;237;1150;-71
2021/07/10 01:50:23;;;;;;;;;;;22.80;54.70;;;;;;500533;237;1043;-71
2021/07/10 01:52:25;;;;;;;;;;;22.80;54.60;;;;;;500463;237;1196;-70
2021/07/10 01:54:26;;;;;;;;;;;22.80;54.60;;;;;;500506;237;1096;-70
2021/07/10 01:56:27;;;;;;;;;;;22.70;54.60;;;;;;500555;237;1119;-71
2021/07/10 01:58:29;;;;;;;;;;;22.80;54.50;;;;;;500543;237;939;-71
2021/07/10 02:00:30;;;;;;;;;;;22.80;54.50;;;;;;500615;237;1117;-71
2021/07/10 02:02:31;;;;;;;;;;;22.90;54.40;;;;;;500388;237;1082;-71
2021/07/10 02:04:33;;;;;;;;;;;22.80;54.30;;;;;;500454;237;1081;-71
2021/07/10 02:06:34;;;;;;;;;;;22.80;54.30;;;;;;500374;237;2192;-70
2021/07/10 02:08:35;;;;;;;;;;;22.90;54.20;;;;;;500453;237;1218;-70
2021/07/10 02:10:37;;;;;;;;;;;22.90;54.20;;;;;;500382;237;1029;-71
2021/07/10 02:12:38;;;;;;;;;;;22.80;54.20;;;;;;500438;237;1125;-71
2021/07/10 02:14:39;;;;;;;;;;;22.80;54.20;;;;;;500501;237;1292;-71
2021/07/10 02:16:41;;;;;;;;;;;22.80;54.20;;;;;;500462;237;1050;-71
2021/07/10 02:18:42;;;;;;;;;;;22.90;54.20;;;;;;500465;237;1039;-71
2021/07/10 02:20:43;;;;;;;;;;;22.90;54.00;;;;;;500651;237;1200;-71
2021/07/10 02:22:45;;;;;;;;;;;22.90;54.00;;;;;;500384;237;1095;-71
2021/07/10 02:24:46;;;;;;;;;;;22.90;54.00;;;;;;500723;237;935;-71
2021/07/10 02:26:47;;;;;;;;;;;22.90;53.90;;;;;;500550;237;2187;-70
2021/07/10 02:28:49;;;;;;;;;;;22.90;54.00;;;;;;500518;237;1110;-71
2021/07/10 02:30:50;;;;;;;;;;;22.90;53.90;;;;;;500422;237;1184;-71
2021/07/10 02:32:51;;;;;;;;;;;22.90;53.90;;;;;;500505;237;1160;-71
2021/07/10 02:34:52;;;;;;;;;;;22.80;53.90;;;;;;500513;237;1070;-71
2021/07/10 02:36:54;;;;;;;;;;;22.80;53.80;;;;;;500400;237;1192;-71
2021/07/10 02:38:55;;;;;;;;;;;23.20;53.30;;;;;;500442;237;1141;-71
2021/07/10 02:40:56;;;;;;;;;;;22.90;53.50;;;;;;500425;237;992;-71
2021/07/10 02:42:58;;;;;;;;;;;22.80;53.80;;;;;;500462;237;1193;-71
2021/07/10 02:44:59;;;;;;;;;;;22.80;53.90;;;;;;500519;237;1160;-71
2021/07/10 02:47:00;;;;;;;;;;;22.80;53.90;;;;;;500411;237;2187;-71
2021/07/10 02:49:02;;;;;;;;;;;22.80;54.00;;;;;;500458;237;939;-71
2021/07/10 02:51:03;;;;;;;;;;;22.80;53.90;;;;;;500444;237;1061;-71
2021/07/10 02:53:05;;;;;;;;;;;22.90;53.80;;;;;;500494;237;1196;-71
2021/07/10 02:55:06;;;;;;;;;;;22.90;53.80;;;;;;500930;237;1126;-71
2021/07/10 02:57:07;;;;;;;;;;;22.90;53.60;;;;;;500450;237;1275;-71
2021/07/10 02:59:09;;;;;;;;;;;22.90;53.70;;;;;;500600;237;1048;-70
2021/07/10 03:01:10;;;;;;;;;;;22.80;53.60;;;;;;500560;237;1184;-71
2021/07/10 03:03:11;;;;;;;;;;;22.80;53.60;;;;;;500828;237;1040;-71
2021/07/10 03:05:13;;;;;;;;;;;23.00;53.50;;;;;;500499;237;1084;-71
2021/07/10 03:07:14;;;;;;;;;;;22.80;53.60;;;;;;500438;237;2195;-71
2021/07/10 03:09:15;;;;;;;;;;;22.80;53.50;;;;;;500509;237;1158;-71
2021/07/10 03:11:17;;;;;;;;;;;22.90;53.40;;;;;;500378;237;1226;-71
2021/07/10 03:13:18;;;;;;;;;;;22.80;53.50;;;;;;500478;237;1025;-71
2021/07/10 03:15:19;;;;;;;;;;;22.90;53.40;;;;;;500573;237;1000;-71
2021/07/10 03:17:21;;;;;;;;;;;22.90;53.40;;;;;;500507;237;1098;-70
2021/07/10 03:19:22;;;;;;;;;;;22.80;53.50;;;;;;500507;237;1082;-70
2021/07/10 03:21:23;;;;;;;;;;;22.80;53.50;;;;;;500558;237;1136;-71
2021/07/10 03:23:25;;;;;;;;;;;22.90;53.40;;;;;;500560;237;1146;-71
2021/07/10 03:25:26;;;;;;;;;;;22.90;53.20;;;;;;500473;237;1074;-71
2021/07/10 03:27:27;;;;;;;;;;;22.90;53.20;;;;;;500373;237;2144;-71
2021/07/10 03:29:29;;;;;;;;;;;22.90;53.20;;;;;;500470;237;1052;-71
2021/07/10 03:31:30;;;;;;;;;;;22.90;53.20;;;;;;500551;237;1297;-71
2021/07/10 03:33:34;;;;;;;;;;;22.90;53.20;;;;;;500997;237;1035;-71
2021/07/10 03:35:33;;;;;;;;;;;22.80;53.20;;;;;;500361;238;1429;-70
2021/07/10 03:37:34;;;;;;;;;;;22.90;53.20;;;;;;500343;237;1142;-70
2021/07/10 03:39:36;;;;;;;;;;;23.00;52.80;;;;;;500457;237;1200;-71
2021/07/10 03:41:37;;;;;;;;;;;22.90;53.00;;;;;;500313;237;1307;-71
2021/07/10 03:43:38;;;;;;;;;;;22.80;53.20;;;;;;500531;237;1092;-71
2021/07/10 03:45:40;;;;;;;;;;;22.80;53.30;;;;;;500477;237;1110;-72
2021/07/10 03:47:41;;;;;;;;;;;22.80;53.30;;;;;;500511;237;2132;-71
2021/07/10 03:49:42;;;;;;;;;;;22.70;53.20;;;;;;500664;237;1038;-71
2021/07/10 03:51:44;;;;;;;;;;;22.80;53.20;;;;;;500416;236;1215;-71
2021/07/10 03:53:45;;;;;;;;;;;22.80;53.10;;;;;;500461;237;1135;-71
2021/07/10 03:55:47;;;;;;;;;;;22.80;53.10;;;;;;500705;237;1062;-71
2021/07/10 03:57:48;;;;;;;;;;;22.80;53.00;;;;;;500446;237;1381;-71
2021/07/10 03:59:49;;;;;;;;;;;22.80;53.00;;;;;;500631;237;1203;-71
2021/07/10 04:01:50;;;;;;;;;;;22.90;52.90;;;;;;500558;237;1273;-71
2021/07/10 04:03:52;;;;;;;;;;;22.80;53.00;;;;;;500492;237;1053;-71
2021/07/10 04:05:53;;;;;;;;;;;22.90;52.80;;;;;;500472;237;1187;-71
2021/07/10 04:07:54;;;;;;;;;;;22.90;52.80;;;;;;500447;237;2152;-71
2021/07/10 04:09:55;;;;;;;;;;;22.90;52.80;;;;;;500517;237;1211;-71
2021/07/10 04:11:57;;;;;;;;;;;22.90;52.70;;;;;;500656;237;936;-71
2021/07/10 04:13:58;;;;;;;;;;;22.90;52.70;;;;;;500665;237;1031;-70
2021/07/10 04:16:00;;;;;;;;;;;22.90;52.70;;;;;;500474;237;1069;-70
2021/07/10 04:18:02;;;;;;;;;;;23.00;52.60;;;;;;500476;237;1355;-71
2021/07/10 04:20:03;;;;;;;;;;;22.90;52.60;;;;;;500505;237;1008;-71
2021/07/10 04:22:04;;;;;;;;;;;22.90;52.70;;;;;;500664;237;1400;-71
2021/07/10 04:24:06;;;;;;;;;;;22.90;52.80;;;;;;500424;237;1150;-71
2021/07/10 04:26:07;;;;;;;;;;;22.80;52.70;;;;;;500417;237;1053;-71
2021/07/10 04:28:08;;;;;;;;;;;22.90;52.70;;;;;;500474;237;2112;-70
2021/07/10 04:30:10;;;;;;;;;;;22.90;52.70;;;;;;500591;237;1053;-71
2021/07/10 04:32:11;;;;;;;;;;;22.90;52.70;;;;;;500456;237;1257;-71
2021/07/10 04:34:12;;;;;;;;;;;23.00;52.60;;;;;;500695;237;1016;-71
2021/07/10 04:36:13;;;;;;;;;;;22.90;52.70;;;;;;500372;237;1059;-71
2021/07/10 04:38:16;;;;;;;;;;;23.00;52.70;;;;;;500432;237;1253;-71
2021/07/10 04:40:17;;;;;;;;;;;23.00;52.50;;;;;;500454;237;1131;-71
2021/07/10 04:42:20;;;;;;;;;;;22.90;52.70;;;;;;500351;237;1197;-71
2021/07/10 04:44:20;;;;;;;;;;;22.90;52.80;;;;;;500672;238;1331;-71
2021/07/10 04:46:21;;;;;;;;;;;22.90;52.90;;;;;;500389;237;2172;-71
2021/07/10 04:48:22;;;;;;;;;;;22.90;53.00;;;;;;500442;237;1088;-71
2021/07/10 04:50:24;;;;;;;;;;;22.80;53.00;;;;;;500357;237;1057;-71
2021/07/10 04:52:25;;;;;;;;;;;22.90;53.00;;;;;;500473;237;983;-71
2021/07/10 04:54:26;;;;;;;;;;;22.90;53.00;;;;;;500429;237;1131;-71
2021/07/10 04:56:28;;;;;;;;;;;22.90;53.10;;;;;;500718;237;1032;-71
2021/07/10 04:58:29;;;;;;;;;;;22.80;53.00;;;;;;500552;237;1022;-71
2021/07/10 05:00:30;;;;;;;;;;;22.90;53.00;;;;;;500423;237;1016;-71
2021/07/10 05:02:32;;;;;;;;;;;22.90;52.80;;;;;;500534;237;1036;-71
2021/07/10 05:04:33;;;;;;;;;;;22.90;52.80;;;;;;500484;237;1087;-71
2021/07/10 05:06:34;;;;;;;;;;;22.90;52.80;;;;;;500438;237;2183;-71
2021/07/10 05:08:35;;;;;;;;;;;23.00;52.90;;;;;;500545;237;1099;-71
2021/07/10 05:10:37;;;;;;;;;;;23.00;52.70;;;;;;500483;237;1118;-71
2021/07/10 05:12:38;;;;;;;;;;;23.00;52.70;;;;;;500385;237;1072;-71
2021/07/10 05:14:39;;;;;;;;;;;23.00;52.80;;;;;;500444;237;974;-71
2021/07/10 05:16:41;;;;;;;;;;;23.00;52.90;;;;;;500432;237;983;-71
2021/07/10 05:18:42;;;;;;;;;;;22.90;53.00;;;;;;500644;237;1054;-71
2021/07/10 05:20:43;;;;;;;;;;;22.90;53.10;;;;;;500613;237;1137;-70
2021/07/10 05:22:45;;;;;;;;;;;22.90;53.30;;;;;;500490;237;963;-70
2021/07/10 05:24:46;;;;;;;;;;;23.00;53.10;;;;;;500488;237;1121;-70
2021/07/10 05:26:47;;;;;;;;;;;22.70;53.70;;;;;;500334;237;2188;-70
2021/07/10 05:28:49;;;;;;;;;;;22.70;53.80;;;;;;500583;237;1066;-70
2021/07/10 05:30:50;;;;;;;;;;;22.80;53.70;;;;;;500851;237;1184;-71
2021/07/10 05:32:51;;;;;;;;;;;22.80;53.70;;;;;;500515;237;1065;-71
2021/07/10 05:34:53;;;;;;;;;;;22.80;53.60;;;;;;500474;237;1156;-71
2021/07/10 05:36:54;;;;;;;;;;;22.90;53.60;;;;;;500442;237;1143;-71
2021/07/10 05:38:55;;;;;;;;;;;22.90;53.50;;;;;;500480;237;1052;-71
2021/07/10 05:40:57;;;;;;;;;;;22.90;53.40;;;;;;500421;237;1265;-71
2021/07/10 05:42:58;;;;;;;;;;;22.90;53.60;;;;;;500456;237;1139;-71
2021/07/10 05:45:00;;;;;;;;;;;23.00;53.50;;;;;;500500;237;1016;-70
2021/07/10 05:47:01;;;;;;;;;;;23.00;53.50;;;;;;500469;237;2248;-71
2021/07/10 05:49:02;;;;;;;;;;;22.90;53.50;;;;;;500415;237;1147;-71
2021/07/10 05:51:04;;;;;;;;;;;22.90;53.50;;;;;;500493;237;1053;-71
2021/07/10 05:53:06;;;;;;;;;;;23.00;53.50;;;;;;500424;237;1279;-71
2021/07/10 05:55:06;;;;;;;;;;;22.90;53.60;;;;;;500445;237;1421;-71
2021/07/10 05:57:08;;;;;;;;;;;22.90;53.60;;;;;;500474;237;1069;-71
2021/07/10 05:59:09;;;;;;;;;;;22.90;53.60;;;;;;500492;237;1118;-71
2021/07/10 06:01:10;;;;;;;;;;;22.90;53.60;;;;;;500546;237;1032;-71
2021/07/10 06:03:11;;;;;;;;;;;22.90;53.70;;;;;;500449;237;1002;-71
2021/07/10 06:05:13;;;;;;;;;;;22.90;53.70;;;;;;500638;237;1063;-71
2021/07/10 06:07:14;;;;;;;;;;;23.00;53.60;;;;;;500418;237;2180;-70
2021/07/10 06:09:15;;;;;;;;;;;23.00;53.50;;;;;;500455;237;956;-70
2021/07/10 06:11:17;;;;;;;;;;;23.00;53.70;;;;;;500382;237;1156;-70
2021/07/10 06:13:19;;;;;;;;;;;22.90;53.70;;;;;;500375;237;1057;-70
2021/07/10 06:15:20;;;;;;;;;;;22.90;53.90;;;;;;500542;237;977;-71
2021/07/10 06:17:22;;;;;;;;;;;22.90;53.80;;;;;;500465;237;1052;-71
2021/07/10 06:19:23;;;;;;;;;;;22.90;53.80;;;;;;500396;237;1061;-71
2021/07/10 06:21:24;;;;;;;;;;;22.90;53.90;;;;;;500353;237;1211;-71
2021/07/10 06:23:25;;;;;;;;;;;22.90;53.90;;;;;;500330;237;990;-71
2021/07/10 06:25:26;;;;;;;;;;;22.90;54.00;;;;;;500355;237;1501;-71
2021/07/10 06:27:28;;;;;;;;;;;23.00;53.80;;;;;;500297;237;2202;-71
2021/07/10 06:29:29;;;;;;;;;;;23.00;53.80;;;;;;500398;237;1095;-71
2021/07/10 06:31:30;;;;;;;;;;;23.00;53.90;;;;;;500493;237;1337;-71
2021/07/10 06:33:32;;;;;;;;;;;23.00;53.80;;;;;;500439;237;1084;-71
2021/07/10 06:35:33;;;;;;;;;;;23.00;53.90;;;;;;500489;237;1155;-71
2021/07/10 06:37:34;;;;;;;;;;;23.00;53.90;;;;;;500409;237;1115;-71
2021/07/10 06:39:36;;;;;;;;;;;23.00;53.90;;;;;;500669;237;1065;-71
2021/07/10 06:41:38;;;;;;;;;;;23.00;53.90;;;;;;500408;237;1638;-71
2021/07/10 06:43:38;;;;;;;;;;;23.10;53.90;;;;;;500436;237;1344;-70
2021/07/10 06:45:40;;;;;;;;;;;23.10;53.90;;;;;;500766;237;1255;-70
2021/07/10 06:47:41;;;;;;;;;;;23.10;54.00;;;;;;500316;237;2180;-70
2021/07/10 06:49:42;;;;;;;;;;;23.00;54.00;;;;;;500413;237;989;-70
2021/07/10 06:51:44;;;;;;;;;;;23.00;54.10;;;;;;500505;237;1273;-70
2021/07/10 06:53:45;;;;;;;;;;;23.00;54.20;;;;;;500715;237;1047;-70
2021/07/10 06:55:47;;;;;;;;;;;23.00;54.30;;;;;;500611;237;1239;-70
2021/07/10 06:57:48;;;;;;;;;;;23.00;54.40;;;;;;500373;237;1103;-71
2021/07/10 06:59:50;;;;;;;;;;;22.90;54.30;;;;;;500684;237;1032;-71
2021/07/10 07:01:51;;;;;;;;;;;23.00;54.30;;;;;;500683;237;1181;-71
2021/07/10 07:03:52;;;;;;;;;;;23.00;54.30;;;;;;500471;237;1034;-71
2021/07/10 07:05:54;;;;;;;;;;;23.10;54.20;;;;;;500669;237;1206;-71
2021/07/10 07:07:55;;;;;;;;;;;23.00;54.20;;;;;;500440;237;2144;-71
2021/07/10 07:09:56;;;;;;;;;;;23.10;54.30;;;;;;500436;237;1004;-71
2021/07/10 07:11:58;;;;;;;;;;;23.00;54.30;;;;;;500411;237;1240;-71
2021/07/10 07:13:59;;;;;;;;;;;23.10;54.30;;;;;;500468;237;1006;-71
2021/07/10 07:16:00;;;;;;;;;;;23.10;54.20;;;;;;500446;237;1056;-71
2021/07/10 07:18:02;;;;;;;;;;;23.10;54.20;;;;;;500467;237;1088;-71
2021/07/10 07:20:03;;;;;;;;;;;23.10;54.30;;;;;;500567;237;1042;-71
2021/07/10 07:22:04;;;;;;;;;;;23.10;54.30;;;;;;500602;237;1056;-71
2021/07/10 07:24:06;;;;;;;;;;;23.10;54.30;;;;;;500676;237;1082;-71
2021/07/10 07:26:07;;;;;;;;;;;23.10;54.40;;;;;;500581;237;1297;-71
2021/07/10 07:28:08;;;;;;;;;;;23.10;54.40;;;;;;500480;237;2183;-71
2021/07/10 07:30:10;;;;;;;;;;;23.10;54.40;;;;;;500563;237;998;-71
2021/07/10 07:32:11;;;;;;;;;;;23.10;54.40;;;;;;500436;237;1032;-71
2021/07/10 07:34:12;;;;;;;;;;;23.00;54.50;;;;;;500529;237;1051;-71
2021/07/10 07:36:14;;;;;;;;;;;23.00;54.60;;;;;;500517;237;1034;-71
2021/07/10 07:38:15;;;;;;;;;;;23.00;54.70;;;;;;500470;237;1033;-71
2021/07/10 07:40:16;;;;;;;;;;;23.10;54.70;;;;;;500681;237;1035;-71
2021/07/10 07:42:18;;;;;;;;;;;23.10;54.60;;;;;;500363;237;1145;-71
2021/07/10 07:44:19;;;;;;;;;;;23.10;54.60;;;;;;500434;237;1125;-71
2021/07/10 07:46:20;;;;;;;;;;;23.10;54.60;;;;;;500434;237;1333;-71
2021/07/10 07:48:21;;;;;;;;;;;23.10;54.70;;;;;;500383;237;2143;-71
2021/07/10 07:50:23;;;;;;;;;;;23.10;54.70;;;;;;500416;237;1171;-70
2021/07/10 07:52:24;;;;;;;;;;;23.10;54.90;;;;;;500321;237;1112;-70
2021/07/10 07:54:27;;;;;;;;;;;23.10;54.90;;;;;;500480;237;1176;-71
2021/07/10 07:56:27;;;;;;;;;;;23.00;55.00;;;;;;500379;237;1255;-71
2021/07/10 07:58:28;;;;;;;;;;;23.00;55.00;;;;;;500352;237;1134;-71
2021/07/10 08:00:29;;;;;;;;;;;23.00;55.10;;;;;;500639;237;1157;-71
2021/07/10 08:02:31;;;;;;;;;;;23.10;55.00;;;;;;500331;237;1109;-71
2021/07/10 08:04:32;;;;;;;;;;;23.10;55.00;;;;;;500383;237;1079;-71
2021/07/10 08:06:33;;;;;;;;;;;23.10;55.10;;;;;;500502;237;1230;-71
2021/07/10 08:08:36;;;;;;;;;;;23.10;54.90;;;;;;500383;237;2136;-71
2021/07/10 08:10:36;;;;;;;;;;;23.10;55.00;;;;;;500495;238;1449;-71
2021/07/10 08:12:37;;;;;;;;;;;23.10;55.00;;;;;;500576;237;1138;-71
2021/07/10 08:14:39;;;;;;;;;;;23.10;55.00;;;;;;500426;237;1052;-71
2021/07/10 08:16:40;;;;;;;;;;;23.10;55.10;;;;;;500715;237;1178;-71
2021/07/10 08:18:41;;;;;;;;;;;23.10;55.00;;;;;;500434;237;1023;-71
2021/07/10 08:20:43;;;;;;;;;;;23.10;55.10;;;;;;500401;237;1021;-71
2021/07/10 08:22:44;;;;;;;;;;;23.10;55.10;;;;;;500468;237;1038;-71
2021/07/10 08:24:45;;;;;;;;;;;23.10;55.00;;;;;;500381;237;1016;-71
2021/07/10 08:26:47;;;;;;;;;;;23.10;55.10;;;;;;500424;237;1254;-70
2021/07/10 08:28:48;;;;;;;;;;;23.10;55.30;;;;;;500555;237;2136;-70
2021/07/10 08:30:49;;;;;;;;;;;23.10;55.30;;;;;;500433;237;1019;-70
2021/07/10 08:32:51;;;;;;;;;;;23.10;55.30;;;;;;500370;237;1248;-71
2021/07/10 08:34:52;;;;;;;;;;;23.00;55.40;;;;;;500388;237;1193;-71
2021/07/10 08:36:53;;;;;;;;;;;23.00;55.40;;;;;;500422;237;1078;-70
2021/07/10 08:38:55;;;;;;;;;;;23.00;55.40;;;;;;500327;237;1045;-70
2021/07/10 08:40:56;;;;;;;;;;;23.00;55.40;;;;;;500356;237;1127;-71
2021/07/10 08:42:57;;;;;;;;;;;23.10;55.40;;;;;;500494;237;1250;-71
2021/07/10 08:44:59;;;;;;;;;;;23.10;55.30;;;;;;500441;237;1027;-71
2021/07/10 08:47:00;;;;;;;;;;;23.20;55.20;;;;;;500434;237;1041;-71
2021/07/10 08:49:01;;;;;;;;;;;23.10;55.30;;;;;;500436;237;2144;-71
2021/07/10 08:51:03;;;;;;;;;;;23.10;55.30;;;;;;500341;237;1054;-71
2021/07/10 08:53:04;;;;;;;;;;;23.10;55.40;;;;;;500361;237;1116;-71
2021/07/10 08:55:05;;;;;;;;;;;23.10;55.40;;;;;;500386;237;1328;-70
2021/07/10 08:57:07;;;;;;;;;;;23.00;55.50;;;;;;500391;237;1136;-71
2021/07/10 08:59:08;;;;;;;;;;;23.10;55.60;;;;;;500295;237;1327;-71
2021/07/10 09:01:09;;;;;;;;;;;23.10;55.50;;;;;;500297;237;1177;-71
2021/07/10 09:03:11;;;;;;;;;;;23.10;55.50;;;;;;500484;237;1054;-70
2021/07/10 09:05:12;;;;;;;;;;;23.10;55.50;;;;;;500377;237;1107;-70
2021/07/10 09:07:13;;;;;;;;;;;23.10;55.40;;;;;;500436;237;1140;-70
2021/07/10 09:09:14;;;;;;;;;;;23.10;55.30;;;;;;500474;237;2121;-71
2021/07/10 09:11:17;;;;;;;;;;;23.10;55.40;;;;;;500438;237;1078;-71
2021/07/10 09:13:17;;;;;;;;;;;23.10;55.30;;;;;;500541;237;1403;-71
2021/07/10 09:15:18;;;;;;;;;;;23.10;55.40;;;;;;500324;237;1010;-71
2021/07/10 09:17:20;;;;;;;;;;;23.10;55.40;;;;;;500334;237;1259;-71
2021/07/10 09:19:21;;;;;;;;;;;23.10;55.50;;;;;;500382;237;1054;-71
2021/07/10 09:21:22;;;;;;;;;;;23.10;55.60;;;;;;500415;237;1054;-71
2021/07/10 09:23:24;;;;;;;;;;;23.10;55.50;;;;;;500616;237;1170;-71
2021/07/10 09:25:25;;;;;;;;;;;23.10;55.50;;;;;;500337;237;1043;-71
2021/07/10 09:27:26;;;;;;;;;;;23.00;55.60;;;;;;500388;233;1286;-70
2021/07/10 09:29:28;;;;;;;;;;;23.00;55.70;;;;;;500690;237;2180;-71
2021/07/10 09:31:29;;;;;;;;;;;23.10;55.60;;;;;;500343;237;1184;-71
2021/07/10 09:33:30;;;;;;;;;;;23.00;55.80;;;;;;500620;237;958;-71
2021/07/10 09:35:32;;;;;;;;;;;23.00;56.00;;;;;;500369;237;1002;-71
2021/07/10 09:37:34;;;;;;;;;;;23.00;56.00;;;;;;500344;237;1170;-71
2021/07/10 09:39:34;;;;;;;;;;;23.00;56.00;;;;;;500254;237;1457;-71
2021/07/10 09:41:36;;;;;;;;;;;23.00;56.10;;;;;;500290;237;1194;-71
2021/07/10 09:43:37;;;;;;;;;;;22.90;56.00;;;;;;500335;237;1188;-71
2021/07/10 09:45:38;;;;;;;;;;;23.00;56.10;;;;;;500423;237;1092;-71
2021/07/10 09:47:41;;;;;;;;;;;22.90;56.30;;;;;;500381;237;1113;-70
2021/07/10 09:49:41;;;;;;;;;;;22.70;56.70;;;;;;500298;237;2182;-70
2021/07/10 09:51:42;;;;;;;;;;;22.60;57.40;;;;;;500219;237;1203;-70
2021/07/10 09:53:44;;;;;;;;;;;22.40;57.90;;;;;;500407;237;1081;-70
2021/07/10 09:55:45;;;;;;;;;;;22.40;58.40;;;;;;500345;237;1202;-70
2021/07/10 09:57:46;;;;;;;;;;;22.20;58.80;;;;;;500542;237;1156;-70
2021/07/10 09:59:48;;;;;;;;;;;22.20;59.10;;;;;;500508;237;1016;-70
2021/07/10 10:01:50;;;;;;;;;;;22.20;59.40;;;;;;500316;236;1208;-70
2021/07/10 10:03:50;;;;;;;;;;;22.10;59.60;;;;;;500305;237;1422;-70
2021/07/10 10:05:52;;;;;;;;;;;22.00;59.90;;;;;;500554;237;1170;-71
2021/07/10 10:07:53;;;;;;;;;;;22.00;60.00;;;;;;500361;237;1063;-70
2021/07/10 10:09:54;;;;;;;;;;;21.90;60.00;;;;;;500617;237;2183;-70
2021/07/10 10:11:57;;;;;;;;;;;21.90;60.20;;;;;;500289;237;1204;-70
2021/07/10 10:13:57;;;;;;;;;;;21.80;60.40;;;;;;500279;238;1594;-71
2021/07/10 10:15:59;;;;;;;;;;;21.70;60.60;;;;;;500333;237;1034;-71
2021/07/10 10:18:00;;;;;;;;;;;21.70;60.70;;;;;;500382;237;1176;-70
2021/07/10 10:20:01;;;;;;;;;;;21.70;60.60;;;;;;500405;237;1331;-70
2021/07/10 10:22:03;;;;;;;;;;;21.70;60.70;;;;;;500375;237;1221;-70
2021/07/10 10:24:04;;;;;;;;;;;21.70;60.80;;;;;;500619;237;1066;-70
2021/07/10 10:26:05;;;;;;;;;;;21.70;61.00;;;;;;500330;237;1024;-70
2021/07/10 10:28:06;;;;;;;;;;;21.60;61.00;;;;;;500391;237;1284;-70
2021/07/10 10:30:08;;;;;;;;;;;21.60;61.10;;;;;;500453;237;2183;-70
2021/07/10 10:32:10;;;;;;;;;;;21.60;61.10;;;;;;500426;237;1060;-71
2021/07/10 10:34:11;;;;;;;;;;;21.70;61.10;;;;;;500515;237;1061;-70
2021/07/10 10:36:12;;;;;;;;;;;21.60;60.90;;;;;;500539;237;1092;-70
2021/07/10 10:38:13;;;;;;;;;;;21.60;61.00;;;;;;500344;237;1108;-70
2021/07/10 10:40:15;;;;;;;;;;;21.70;61.00;;;;;;500307;237;1018;-70
2021/07/10 10:42:16;;;;;;;;;;;21.70;61.10;;;;;;500191;237;1153;-70
2021/07/10 10:44:18;;;;;;;;;;;21.60;61.10;;;;;;500457;237;1182;-70
2021/07/10 10:46:23;;;;;;;;;;;21.60;61.10;;;;;;500280;237;1410;-70
2021/07/10 10:48:20;;;;;;;;;;;21.60;61.00;;;;;;500112;238;1441;-71
2021/07/10 10:50:23;;;;;;;;;;;21.70;61.00;;;;;;500467;237;2141;-71
2021/07/10 10:52:24;;;;;;;;;;;21.60;61.00;;;;;;500201;237;1413;-70
2021/07/10 10:54:25;;;;;;;;;;;21.60;61.00;;;;;;500412;237;1069;-70
2021/07/10 10:56:26;;;;;;;;;;;21.60;61.10;;;;;;500439;237;1149;-70
2021/07/10 10:58:30;;;;;;;;;;;21.60;61.20;;;;;;500514;237;1032;-70
2021/07/10 11:00:29;;;;;;;;;;;21.60;61.20;;;;;;500172;238;1383;-70
2021/07/10 11:02:32;;;;;;;;;;;21.60;61.10;;;;;;500284;237;1141;-70
2021/07/10 11:04:32;;;;;;;;;;;21.60;61.10;;;;;;500292;238;1467;-70
2021/07/10 11:06:34;;;;;;;;;;;21.50;61.00;;;;;;500235;237;1200;-70
2021/07/10 11:08:35;;;;;;;;;;;21.50;61.10;;;;;;500423;237;2149;-70
2021/07/10 11:10:36;;;;;;;;;;;21.50;61.10;;;;;;500650;237;1206;-70
2021/07/10 11:12:37;;;;;;;;;;;21.50;61.10;;;;;;500400;237;1085;-70
2021/07/10 11:14:39;;;;;;;;;;;21.50;61.10;;;;;;500419;237;1129;-70
2021/07/10 11:16:40;;;;;;;;;;;21.50;61.10;;;;;;500348;237;1212;-70
2021/07/10 11:18:41;;;;;;;;;;;21.50;61.00;;;;;;500670;237;1109;-70
2021/07/10 11:20:42;;;;;;;;;;;21.60;61.00;;;;;;500611;237;1205;-71
2021/07/10 11:22:44;;;;;;;;;;;21.50;61.00;;;;;;500405;237;1118;-71
2021/07/10 11:24:45;;;;;;;;;;;21.50;61.00;;;;;;500709;237;979;-71
2021/07/10 11:26:46;;;;;;;;;;;21.50;61.00;;;;;;500262;237;1219;-70
2021/07/10 11:28:48;;;;;;;;;;;21.60;61.10;;;;;;500396;237;2157;-71
2021/07/10 11:30:49;;;;;;;;;;;21.60;60.90;;;;;;500467;237;1406;-70
2021/07/10 11:32:50;;;;;;;;;;;21.50;61.00;;;;;;500389;237;1128;-70
2021/07/10 11:34:52;;;;;;;;;;;21.60;60.90;;;;;;500878;237;1092;-70
2021/07/10 11:36:53;;;;;;;;;;;21.60;60.90;;;;;;500501;236;1247;-70
2021/07/10 11:38:54;;;;;;;;;;;21.60;60.90;;;;;;500634;237;990;-70
2021/07/10 11:40:56;;;;;;;;;;;21.60;60.90;;;;;;500644;237;1059;-70
2021/07/10 11:42:57;;;;;;;;;;;21.50;60.90;;;;;;500478;237;1189;-70
2021/07/10 11:45:04;;;;;;;;;;;21.50;60.80;;;;;;500550;237;1163;-70
2021/07/10 11:47:00;;;;;;;;;;;21.50;60.90;;;;;;499927;238;1493;-70
2021/07/10 11:49:03;;;;;;;;;;;21.50;60.90;;;;;;500635;237;2179;-70
2021/07/10 11:51:03;;;;;;;;;;;21.50;61.00;;;;;;500316;237;1341;-70
2021/07/10 11:53:04;;;;;;;;;;;21.60;61.10;;;;;;500332;237;1116;-70
2021/07/10 11:55:05;;;;;;;;;;;21.60;61.00;;;;;;500424;237;1078;-70
2021/07/10 11:57:07;;;;;;;;;;;21.60;61.00;;;;;;500273;237;1179;-70